createdAt,value
2017-05-19T00:01:25.883Z,3.86
2017-05-19T00:03:55.586Z,4.40
2017-05-19T00:06:25.148Z,4.54
2017-05-19T00:08:54.079Z,3.90
2017-05-19T00:11:22.924Z,3.64
2017-05-19T00:13:51.731Z,3.72
2017-05-19T00:16:20.570Z,3.92
2017-05-19T00:18:49.386Z,3.80
2017-05-19T00:21:18.221Z,4.86
2017-05-19T00:23:47.045Z,3.88
2017-05-19T00:26:15.892Z,3.70
2017-05-19T00:28:44.722Z,4.28
2017-05-19T00:31:13.550Z,4.82
2017-05-19T00:33:42.375Z,5.14
2017-05-19T00:36:11.199Z,4.02
2017-05-19T00:38:40.037Z,6.42
2017-05-19T00:41:08.851Z,4.12
2017-05-19T00:43:37.693Z,4.10
2017-05-19T00:46:07.376Z,4.08
2017-05-19T00:48:36.196Z,6.14
2017-05-19T00:51:05.014Z,3.92
2017-05-19T00:53:33.864Z,3.60
2017-05-19T00:56:02.701Z,3.60
2017-05-19T00:58:31.533Z,4.18
2017-05-19T01:01:00.382Z,3.86
2017-05-19T01:03:29.261Z,5.04
2017-05-19T01:05:58.077Z,6.46
2017-05-19T01:08:26.909Z,4.18
2017-05-19T01:10:55.743Z,3.66
2017-05-19T01:13:24.571Z,4.68
2017-05-19T01:15:53.460Z,5.38
2017-05-19T01:18:22.266Z,4.54
2017-05-19T01:20:51.840Z,3.44
2017-05-19T01:23:20.650Z,3.36
2017-05-19T01:25:50.237Z,4.30
2017-05-19T01:28:19.054Z,7.08
2017-05-19T01:30:48.732Z,6.42
2017-05-19T01:33:17.544Z,8.20
2017-05-19T01:35:46.380Z,7.34
2017-05-19T01:38:15.208Z,6.92
2017-05-19T01:40:44.205Z,5.04
2017-05-19T01:43:13.023Z,6.98
2017-05-19T01:45:41.854Z,6.30
2017-05-19T01:48:10.694Z,4.88
2017-05-19T01:50:39.512Z,5.26
2017-05-19T01:53:08.355Z,9.26
2017-05-19T01:55:37.194Z,7.74
2017-05-19T01:58:06.016Z,4.12
2017-05-19T02:00:34.837Z,5.08
2017-05-19T02:03:03.652Z,5.22
2017-05-19T02:05:32.483Z,6.06
2017-05-19T02:08:01.309Z,4.38
2017-05-19T02:10:30.143Z,5.18
2017-05-19T02:12:58.979Z,6.42
2017-05-19T02:15:27.790Z,6.18
2017-05-19T02:17:56.612Z,5.86
2017-05-19T02:20:25.446Z,6.10
2017-05-19T02:22:54.276Z,6.32
2017-05-19T02:25:23.113Z,5.26
2017-05-19T02:27:51.928Z,4.68
2017-05-19T02:30:20.753Z,3.94
2017-05-19T02:32:49.568Z,7.22
2017-05-19T02:35:18.396Z,7.96
2017-05-19T02:37:47.207Z,6.50
2017-05-19T02:40:16.124Z,5.48
2017-05-19T02:42:44.891Z,6.52
2017-05-19T02:45:13.727Z,6.38
2017-05-19T02:47:42.553Z,12.26
2017-05-19T02:50:11.376Z,14.92
2017-05-19T02:52:40.209Z,5.04
2017-05-19T02:55:09.079Z,5.94
2017-05-19T02:57:37.924Z,6.38
2017-05-19T03:00:06.741Z,5.16
2017-05-19T03:02:35.559Z,5.26
2017-05-19T03:05:04.389Z,4.98
2017-05-19T03:07:33.207Z,4.66
2017-05-19T03:10:02.035Z,7.54
2017-05-19T03:12:30.851Z,5.04
2017-05-19T03:14:59.811Z,5.58
2017-05-19T03:17:28.624Z,5.70
2017-05-19T03:19:57.456Z,5.68
2017-05-19T03:22:26.291Z,6.10
2017-05-19T03:24:55.117Z,6.28
2017-05-19T03:27:23.940Z,6.56
2017-05-19T03:29:52.757Z,6.36
2017-05-19T03:32:21.598Z,6.68
2017-05-19T03:34:50.471Z,6.36
2017-05-19T03:37:19.290Z,6.02
2017-05-19T03:39:48.108Z,6.64
2017-05-19T03:42:16.931Z,6.60
2017-05-19T03:44:45.771Z,7.18
2017-05-19T03:47:14.603Z,7.86
2017-05-19T03:49:43.443Z,7.92
2017-05-19T03:52:12.265Z,7.50
2017-05-19T03:54:41.080Z,7.62
2017-05-19T03:57:09.929Z,9.30
2017-05-19T03:59:38.735Z,8.28
2017-05-19T04:02:07.557Z,7.68
2017-05-19T04:04:36.377Z,7.96
2017-05-19T04:07:05.218Z,8.22
2017-05-19T04:09:34.055Z,7.64
2017-05-19T04:12:02.865Z,9.42
2017-05-19T04:14:31.691Z,8.56
2017-05-19T04:17:00.524Z,6.44
2017-05-19T04:19:29.380Z,9.22
2017-05-19T04:21:58.180Z,9.60
2017-05-19T04:24:27.023Z,8.68
2017-05-19T04:26:55.839Z,10.04
2017-05-19T04:29:24.663Z,7.84
2017-05-19T04:31:54.426Z,9.64
2017-05-19T04:34:23.252Z,9.20
2017-05-19T04:36:52.114Z,8.88
2017-05-19T04:39:20.950Z,8.44
2017-05-19T04:41:49.778Z,7.56
2017-05-19T04:44:18.603Z,8.52
2017-05-19T04:46:47.412Z,8.46
2017-05-19T04:49:16.244Z,9.14
2017-05-19T04:51:45.063Z,7.88
2017-05-19T04:54:13.913Z,8.44
2017-05-19T04:56:42.724Z,9.08
2017-05-19T04:59:11.566Z,8.44
2017-05-19T05:01:40.391Z,8.92
2017-05-19T05:04:09.247Z,8.54
2017-05-19T05:06:38.094Z,9.56
2017-05-19T05:09:06.907Z,9.92
2017-05-19T05:11:35.749Z,8.78
2017-05-19T05:14:04.565Z,8.88
2017-05-19T05:16:33.415Z,7.96
2017-05-19T05:19:02.239Z,7.60
2017-05-19T05:21:31.075Z,7.42
2017-05-19T05:23:59.910Z,7.20
2017-05-19T05:26:28.730Z,7.64
2017-05-19T05:28:57.556Z,7.28
2017-05-19T05:31:26.395Z,7.30
2017-05-19T05:33:55.321Z,8.44
2017-05-19T05:36:24.127Z,8.18
2017-05-19T05:38:52.948Z,8.38
2017-05-19T05:41:21.775Z,8.88
2017-05-19T05:43:50.604Z,7.40
2017-05-19T05:46:19.427Z,7.86
2017-05-19T05:48:48.241Z,9.80
2017-05-19T05:51:17.091Z,8.92
2017-05-19T05:53:45.937Z,9.04
2017-05-19T05:56:14.752Z,7.90
2017-05-19T05:58:43.579Z,8.86
2017-05-19T06:01:12.403Z,9.14
2017-05-19T06:03:41.244Z,8.94
2017-05-19T06:06:10.090Z,9.52
2017-05-19T06:08:38.906Z,8.80
2017-05-19T06:11:07.728Z,8.94
2017-05-19T06:13:36.548Z,8.12
2017-05-19T06:16:05.373Z,9.56
2017-05-19T06:18:34.215Z,9.14
2017-05-19T06:21:03.048Z,8.66
2017-05-19T06:23:31.858Z,8.58
2017-05-19T06:26:00.683Z,8.44
2017-05-19T06:28:29.511Z,10.66
2017-05-19T06:30:58.328Z,9.16
2017-05-19T06:33:27.186Z,9.70
2017-05-19T06:35:56.003Z,10.02
2017-05-19T06:38:24.867Z,8.56
2017-05-19T06:40:56.190Z,9.10
2017-05-19T06:43:39.934Z,7.84
2017-05-19T06:46:18.697Z,8.68
2017-05-19T06:48:47.550Z,8.00
2017-05-19T06:51:16.376Z,7.58
2017-05-19T06:53:45.198Z,8.54
2017-05-19T06:56:14.033Z,7.80
2017-05-19T06:58:42.857Z,6.88
2017-05-19T07:01:11.702Z,6.74
2017-05-19T07:03:40.518Z,6.56
2017-05-19T07:06:09.355Z,5.88
2017-05-19T07:08:38.169Z,6.60
2017-05-19T07:11:06.989Z,6.18
2017-05-19T07:13:35.831Z,6.02
2017-05-19T07:16:04.647Z,6.20
2017-05-19T07:18:34.161Z,6.80
2017-05-19T07:21:02.212Z,5.80
2017-05-19T07:23:31.268Z,5.98
2017-05-19T07:26:00.083Z,6.20
2017-05-19T07:28:28.899Z,5.32
2017-05-19T07:30:57.731Z,8.36
2017-05-19T07:33:26.547Z,5.62
2017-05-19T07:35:55.367Z,4.68
2017-05-19T07:38:24.183Z,4.98
2017-05-19T07:40:53.018Z,4.72
2017-05-19T07:43:21.841Z,4.30
2017-05-19T07:45:50.663Z,4.82
2017-05-19T07:48:19.484Z,5.10
2017-05-19T07:50:48.307Z,5.12
2017-05-19T07:53:17.130Z,4.54
2017-05-19T07:55:45.950Z,4.56
2017-05-19T07:58:14.790Z,5.36
2017-05-19T08:00:43.616Z,5.30
2017-05-19T08:03:12.431Z,5.14
2017-05-19T08:05:41.247Z,6.80
2017-05-19T08:08:10.059Z,5.14
2017-05-19T08:10:38.893Z,4.20
2017-05-19T08:13:07.715Z,4.72
2017-05-19T08:15:36.568Z,3.80
2017-05-19T08:18:05.386Z,4.10
2017-05-19T08:20:34.207Z,5.28
2017-05-19T08:23:03.032Z,4.70
2017-05-19T08:25:31.843Z,3.96
2017-05-19T08:28:00.690Z,7.52
2017-05-19T08:30:29.508Z,5.18
2017-05-19T08:32:58.352Z,4.58
2017-05-19T08:35:27.166Z,4.44
2017-05-19T08:37:55.985Z,4.74
2017-05-19T08:40:24.832Z,6.62
2017-05-19T08:42:53.656Z,4.48
2017-05-19T08:45:22.479Z,5.70
2017-05-19T08:47:51.314Z,4.60
2017-05-19T08:50:20.155Z,5.42
2017-05-19T08:52:48.972Z,5.60
2017-05-19T08:55:17.784Z,5.96
2017-05-19T08:57:46.608Z,5.78
2017-05-19T09:00:15.444Z,5.54
2017-05-19T09:02:44.288Z,6.22
2017-05-19T09:05:13.097Z,6.16
2017-05-19T09:07:41.923Z,4.56
2017-05-19T09:10:10.747Z,6.12
2017-05-19T09:12:39.576Z,6.08
2017-05-19T09:15:08.395Z,6.02
2017-05-19T09:17:37.243Z,5.52
2017-05-19T09:20:06.051Z,5.56
2017-05-19T09:22:34.867Z,7.00
2017-05-19T09:25:03.692Z,9.82
2017-05-19T09:27:32.534Z,5.32
2017-05-19T09:30:01.368Z,5.84
2017-05-19T09:32:30.183Z,5.92
2017-05-19T09:34:59.008Z,6.18
2017-05-19T09:37:27.836Z,6.78
2017-05-19T09:39:56.651Z,8.66
2017-05-19T09:42:25.496Z,7.70
2017-05-19T09:44:54.328Z,7.50
2017-05-19T09:47:23.152Z,5.58
2017-05-19T09:49:51.979Z,5.16
2017-05-19T09:52:20.809Z,5.30
2017-05-19T09:54:49.651Z,6.08
2017-05-19T09:57:18.472Z,6.32
2017-05-19T09:59:47.295Z,7.66
2017-05-19T10:02:16.122Z,7.72
2017-05-19T10:04:44.948Z,6.80
2017-05-19T10:07:13.802Z,5.62
2017-05-19T10:09:42.620Z,8.12
2017-05-19T10:12:11.447Z,8.90
2017-05-19T10:14:40.272Z,7.18
2017-05-19T10:17:09.103Z,8.02
2017-05-19T10:19:37.925Z,7.58
2017-05-19T10:22:06.744Z,7.44
2017-05-19T10:24:35.560Z,7.38
2017-05-19T10:27:04.402Z,7.54
2017-05-19T10:29:33.213Z,7.92
2017-05-19T10:32:38.781Z,7.52
2017-05-19T10:35:07.609Z,9.80
2017-05-19T10:37:36.440Z,7.54
2017-05-19T10:40:05.301Z,8.68
2017-05-19T10:42:34.142Z,8.60
2017-05-19T10:45:02.967Z,8.92
2017-05-19T10:47:31.800Z,7.50
2017-05-19T10:50:00.628Z,8.42
2017-05-19T10:52:29.475Z,8.42
2017-05-19T10:54:58.305Z,7.46
2017-05-19T10:57:27.163Z,8.22
2017-05-19T10:59:55.983Z,9.22
2017-05-19T11:02:24.816Z,8.10
2017-05-19T11:04:53.654Z,7.98
2017-05-19T11:07:22.480Z,8.22
2017-05-19T11:09:51.338Z,8.30
2017-05-19T11:12:20.176Z,7.94
2017-05-19T11:14:49.004Z,8.08
2017-05-19T11:17:17.853Z,9.22
2017-05-19T11:19:46.682Z,11.50
2017-05-19T11:22:15.532Z,8.68
2017-05-19T11:24:44.365Z,7.70
2017-05-19T11:27:13.222Z,8.84
2017-05-19T11:29:42.053Z,8.04
2017-05-19T11:32:10.884Z,8.54
2017-05-19T11:34:39.738Z,6.86
2017-05-19T11:37:08.568Z,7.60
2017-05-19T11:39:37.407Z,7.72
2017-05-19T11:42:06.232Z,8.44
2017-05-19T11:44:35.077Z,8.22
2017-05-19T11:47:03.909Z,7.30
2017-05-19T11:49:32.738Z,9.84
2017-05-19T11:52:01.577Z,7.06
2017-05-19T11:54:30.407Z,6.86
2017-05-19T11:56:59.255Z,6.20
2017-05-19T11:59:28.108Z,6.56
2017-05-19T12:01:56.941Z,6.80
2017-05-19T12:04:25.765Z,8.20
2017-05-19T12:06:54.613Z,8.14
2017-05-19T12:09:23.454Z,7.88
2017-05-19T12:11:52.309Z,7.00
2017-05-19T12:14:21.131Z,7.08
2017-05-19T12:16:49.985Z,7.62
2017-05-19T12:19:18.831Z,7.94
2017-05-19T12:21:47.668Z,7.44
2017-05-19T12:24:16.533Z,7.96
2017-05-19T12:26:45.355Z,7.92
2017-05-19T12:29:14.190Z,8.78
2017-05-19T12:31:43.024Z,7.76
2017-05-19T12:34:11.906Z,8.28
2017-05-19T12:36:40.752Z,7.54
2017-05-19T12:39:09.593Z,8.40
2017-05-19T12:41:38.424Z,9.24
2017-05-19T12:44:07.343Z,9.60
2017-05-19T12:46:36.164Z,7.82
2017-05-19T12:49:04.992Z,8.34
2017-05-19T12:51:33.873Z,8.26
2017-05-19T12:54:02.701Z,9.42
2017-05-19T12:56:31.550Z,10.60
2017-05-19T12:59:00.391Z,11.40
2017-05-19T13:01:29.234Z,10.60
2017-05-19T13:03:58.074Z,9.30
2017-05-19T13:06:26.905Z,9.34
2017-05-19T13:08:55.759Z,10.40
2017-05-19T13:11:24.609Z,10.86
2017-05-19T13:13:53.432Z,9.86
2017-05-19T13:16:22.263Z,9.54
2017-05-19T13:18:51.102Z,10.18
2017-05-19T13:21:20.852Z,8.56
2017-05-19T13:23:49.683Z,9.34
2017-05-19T13:26:18.516Z,10.08
2017-05-19T13:28:47.365Z,10.50
2017-05-19T13:31:16.205Z,16.32
2017-05-19T13:33:45.112Z,11.14
2017-05-19T13:36:13.967Z,12.48
2017-05-19T13:38:42.796Z,12.48
2017-05-19T13:41:11.657Z,14.28
2017-05-19T13:43:40.500Z,15.64
2017-05-19T13:46:09.334Z,14.00
2017-05-19T13:48:38.169Z,15.78
2017-05-19T13:51:07.011Z,16.36
2017-05-19T13:53:35.110Z,16.40
2017-05-19T13:56:03.943Z,18.08
2017-05-19T13:58:32.781Z,14.80
2017-05-19T14:01:01.624Z,14.88
2017-05-19T14:03:29.740Z,14.14
2017-05-19T14:05:58.599Z,13.14
2017-05-19T14:08:27.436Z,11.10
2017-05-19T14:10:56.267Z,12.00
2017-05-19T14:13:25.112Z,10.14
2017-05-19T14:15:53.938Z,9.14
2017-05-19T14:18:22.801Z,10.40
2017-05-19T14:20:51.624Z,9.40
2017-05-19T14:23:20.454Z,7.58
2017-05-19T14:25:49.301Z,7.72
2017-05-19T14:28:18.131Z,7.72
2017-05-19T14:30:46.960Z,6.14
2017-05-19T14:33:15.804Z,5.70
2017-05-19T14:35:43.872Z,8.88
2017-05-19T14:38:12.732Z,6.10
2017-05-19T14:40:41.573Z,5.44
2017-05-19T14:43:10.414Z,5.78
2017-05-19T14:45:39.252Z,5.70
2017-05-19T14:48:08.079Z,4.90
2017-05-19T14:50:36.928Z,4.98
2017-05-19T14:53:05.761Z,6.94
2017-05-19T14:55:34.583Z,5.32
2017-05-19T14:58:03.425Z,3.72
2017-05-19T15:00:32.263Z,3.22
2017-05-19T15:03:01.121Z,3.24
2017-05-19T15:05:29.950Z,2.66
2017-05-19T15:07:58.856Z,3.92
2017-05-19T15:10:27.681Z,3.02
2017-05-19T15:12:56.504Z,1.30
2017-05-19T15:15:25.352Z,3.14
2017-05-19T15:17:54.184Z,2.16
2017-05-19T15:20:22.256Z,3.10
2017-05-19T15:22:51.084Z,2.80
2017-05-19T15:25:19.201Z,2.50
2017-05-19T15:27:48.009Z,1.92
2017-05-19T15:30:16.840Z,3.14
2017-05-19T15:32:45.686Z,1.22
2017-05-19T15:35:14.508Z,1.94
2017-05-19T15:37:43.342Z,2.60
2017-05-19T15:40:12.203Z,3.62
2017-05-19T15:42:41.056Z,1.22
2017-05-19T15:45:09.920Z,5.42
2017-05-19T15:47:38.766Z,1.10
2017-05-19T15:50:07.592Z,1.70
2017-05-19T15:52:36.428Z,0.90
2017-05-19T15:55:05.302Z,2.26
2017-05-19T15:57:34.133Z,1.66
2017-05-19T16:00:02.976Z,3.66
2017-05-19T16:02:31.814Z,2.06
2017-05-19T16:05:00.645Z,3.50
2017-05-19T16:07:29.481Z,3.56
2017-05-19T16:09:57.548Z,1.96
2017-05-19T16:12:26.406Z,1.12
2017-05-19T16:14:55.238Z,1.10
2017-05-19T16:17:24.061Z,1.52
2017-05-19T16:19:52.896Z,3.18
2017-05-19T16:22:21.731Z,1.10
2017-05-19T16:24:50.590Z,3.90
2017-05-19T16:27:19.416Z,1.20
2017-05-19T16:29:48.261Z,1.40
2017-05-19T16:32:17.126Z,1.24
2017-05-19T16:34:45.948Z,1.10
2017-05-19T16:37:14.789Z,1.10
2017-05-19T16:39:43.629Z,2.72
2017-05-19T16:42:12.465Z,3.62
2017-05-19T16:44:41.305Z,1.20
2017-05-19T16:47:10.136Z,1.10
2017-05-19T16:49:38.973Z,1.10
2017-05-19T16:52:07.817Z,1.68
2017-05-19T16:54:36.647Z,1.52
2017-05-19T16:57:05.498Z,1.36
2017-05-19T16:59:34.328Z,1.30
2017-05-19T17:02:02.404Z,1.10
2017-05-19T17:04:30.470Z,1.20
2017-05-19T17:06:59.305Z,1.24
2017-05-19T17:09:28.145Z,1.40
2017-05-19T17:11:56.974Z,1.30
2017-05-19T17:14:25.810Z,1.66
2017-05-19T17:16:54.638Z,1.64
2017-05-19T17:19:23.460Z,1.68
2017-05-19T17:21:52.301Z,1.50
2017-05-19T17:24:21.133Z,1.88
2017-05-19T17:26:49.968Z,1.82
2017-05-19T17:29:18.807Z,1.92
2017-05-19T17:31:47.657Z,1.80
2017-05-19T17:34:16.498Z,1.78
2017-05-19T17:36:45.334Z,1.96
2017-05-19T17:39:14.177Z,3.66
2017-05-19T17:41:43.002Z,1.80
2017-05-19T17:44:11.852Z,2.10
2017-05-19T17:46:40.695Z,2.32
2017-05-19T17:49:09.526Z,2.84
2017-05-19T17:51:38.372Z,2.50
2017-05-19T17:54:07.201Z,3.64
2017-05-19T17:56:36.063Z,2.58
2017-05-19T17:59:04.925Z,2.62
2017-05-19T18:01:33.769Z,4.70
2017-05-19T18:04:01.848Z,2.50
2017-05-19T18:06:30.676Z,2.22
2017-05-19T18:08:59.541Z,3.38
2017-05-19T18:11:28.390Z,2.40
2017-05-19T18:13:57.225Z,2.04
2017-05-19T18:16:26.069Z,2.00
2017-05-19T18:18:54.905Z,1.90
2017-05-19T18:21:23.760Z,2.18
2017-05-19T18:23:52.587Z,1.60
2017-05-19T18:26:21.428Z,1.64
2017-05-19T18:28:50.272Z,1.80
2017-05-19T18:31:19.152Z,1.48
2017-05-19T18:33:48.005Z,1.62
2017-05-19T18:36:16.837Z,1.26
2017-05-19T18:38:45.699Z,1.82
2017-05-19T18:41:14.540Z,1.30
2017-05-19T18:43:43.388Z,1.60
2017-05-19T18:46:12.343Z,1.36
2017-05-19T18:51:38.907Z,1.10
2017-05-19T18:54:07.751Z,1.54
2017-05-19T18:56:36.583Z,1.64
2017-05-19T18:59:05.438Z,1.40
2017-05-19T19:01:34.276Z,1.90
2017-05-19T19:04:03.147Z,2.54
2017-05-19T19:06:31.985Z,2.00
2017-05-19T19:09:00.817Z,2.00
2017-05-19T19:11:29.739Z,2.08
2017-05-19T19:13:58.613Z,2.14
2017-05-19T19:16:27.468Z,2.26
2017-05-19T19:18:56.385Z,2.32
2017-05-19T19:21:24.545Z,2.10
2017-05-19T19:23:53.418Z,2.28
2017-05-19T19:26:22.291Z,2.54
2017-05-19T19:28:51.307Z,2.70
2017-05-19T19:31:20.278Z,2.76
2017-05-19T19:33:49.421Z,2.92
2017-05-19T19:36:18.439Z,2.46
2017-05-19T19:38:47.400Z,2.52
2017-05-19T19:41:16.412Z,2.88
2017-05-19T19:43:45.361Z,2.20
2017-05-19T19:46:14.366Z,2.24
2017-05-19T19:48:43.226Z,2.32
2017-05-19T19:51:12.153Z,2.98
2017-05-19T19:53:41.051Z,2.16
2017-05-19T19:56:09.934Z,2.12
2017-05-19T19:58:38.784Z,2.22
2017-05-19T20:01:06.859Z,2.10
2017-05-19T20:03:35.692Z,2.26
2017-05-19T20:06:04.598Z,2.90
2017-05-19T20:08:33.432Z,2.58
2017-05-19T20:11:02.310Z,2.86
2017-05-19T20:13:31.245Z,3.58
2017-05-19T20:16:00.068Z,3.24
2017-05-19T20:18:28.909Z,3.64
2017-05-19T20:20:56.974Z,2.98
2017-05-19T20:23:25.044Z,3.06
2017-05-19T20:25:53.884Z,3.28
2017-05-19T20:28:22.722Z,3.24
2017-05-19T20:30:51.624Z,4.38
2017-05-19T20:33:20.455Z,4.34
2017-05-19T20:35:49.288Z,5.18
2017-05-19T20:38:18.125Z,4.96
2017-05-19T20:40:46.965Z,5.70
2017-05-19T20:43:15.797Z,6.36
2017-05-19T20:45:44.641Z,8.78
2017-05-19T20:48:13.477Z,6.84
2017-05-19T20:50:42.328Z,7.50
2017-05-19T20:53:11.158Z,6.24
2017-05-19T20:55:39.243Z,5.40
2017-05-19T20:58:08.071Z,5.34
2017-05-19T21:00:36.911Z,7.54
2017-05-19T21:03:05.753Z,6.72
2017-05-19T21:05:34.588Z,6.70
2017-05-19T21:08:03.427Z,7.34
2017-05-19T21:10:32.268Z,6.56
2017-05-19T21:13:01.096Z,6.82
2017-05-19T21:15:29.925Z,7.66
2017-05-19T21:17:58.785Z,7.24
2017-05-19T21:20:27.644Z,7.34
2017-05-19T21:22:56.472Z,6.42
2017-05-19T21:25:25.306Z,8.32
2017-05-19T21:27:54.145Z,8.40
2017-05-19T21:30:23.250Z,7.46
2017-05-19T21:32:52.467Z,7.26
2017-05-19T21:35:21.604Z,7.80
2017-05-19T21:37:50.754Z,7.52
2017-05-19T21:40:20.064Z,7.74
2017-05-19T21:42:49.282Z,8.08
2017-05-19T21:45:17.335Z,9.46
2017-05-19T21:47:46.177Z,8.62
2017-05-19T21:50:15.004Z,8.54
2017-05-19T21:52:43.076Z,7.62
2017-05-19T21:55:11.953Z,7.52
2017-05-19T21:57:40.799Z,7.20
2017-05-19T22:00:08.864Z,7.70
2017-05-19T22:02:37.701Z,6.68
2017-05-19T22:05:06.536Z,7.40
2017-05-19T22:07:35.372Z,7.20
2017-05-19T22:10:04.213Z,6.92
2017-05-19T22:12:33.039Z,6.88
2017-05-19T22:15:01.918Z,6.16
2017-05-19T22:17:30.757Z,6.08
2017-05-19T22:19:59.596Z,7.50
2017-05-19T22:22:28.449Z,6.28
2017-05-19T22:24:57.286Z,6.04
2017-05-19T22:27:26.122Z,6.04
2017-05-19T22:29:54.965Z,6.44
2017-05-19T22:32:23.808Z,5.74
2017-05-19T22:34:51.923Z,4.74
2017-05-19T22:37:20.759Z,5.50
2017-05-19T22:39:49.595Z,5.40
2017-05-19T22:42:18.436Z,6.12
2017-05-19T22:44:47.285Z,5.62
2017-05-19T22:47:16.131Z,5.84
2017-05-19T22:49:44.963Z,6.02
2017-05-19T22:52:13.809Z,5.86
2017-05-19T22:54:42.643Z,6.74
2017-05-19T22:57:11.472Z,5.50
2017-05-19T22:59:40.335Z,5.92
2017-05-19T23:02:09.170Z,8.66
2017-05-19T23:04:38.055Z,5.60
2017-05-19T23:07:06.905Z,6.00
2017-05-19T23:09:35.727Z,5.52
2017-05-19T23:12:04.592Z,5.74
2017-05-19T23:14:33.413Z,5.02
2017-05-19T23:17:02.253Z,6.00
2017-05-19T23:19:31.083Z,7.92
2017-05-19T23:21:59.167Z,6.12
2017-05-19T23:24:27.997Z,4.46
2017-05-19T23:26:56.055Z,5.50
2017-05-19T23:29:24.882Z,6.24
2017-05-19T23:31:53.720Z,5.50
2017-05-19T23:34:22.550Z,5.52
2017-05-19T23:36:51.388Z,5.44
2017-05-19T23:39:20.215Z,5.62
2017-05-19T23:41:49.034Z,5.56
2017-05-19T23:44:17.110Z,5.98
2017-05-19T23:46:45.940Z,5.56
2017-05-19T23:49:14.783Z,5.56
2017-05-19T23:51:42.848Z,5.54
2017-05-19T23:54:11.733Z,5.40
2017-05-19T23:56:40.572Z,4.30
2017-05-19T23:59:09.396Z,5.08
